Time;durP1;ratioP1;P1;durP2;ratioP2;P2;SDS_P1;SDS_P2;PMS_P1;PMS_P2;Temp;Humidity;BMP_temperature;BMP_pressure;BME280_temperature;BME280_humidity;BME280_pressure;Samples;Min_cycle;Max_cycle;Signal;HPM_P1;HPM_P2
2023/12/07 00:01:05;;;;;;;2.67;0.85;;;;;;;1.17;100.00;102112.91;5099258;27;96762;-26
2023/12/07 00:03:30;;;;;;;0.68;0.65;;;;;;;1.17;100.00;102118.25;5098251;27;99675;-27
2023/12/07 00:05:55;;;;;;;1.60;1.13;;;;;;;1.16;100.00;102118.22;5098603;27;99322;-26
2023/12/07 00:08:21;;;;;;;3.53;1.02;;;;;;;1.11;100.00;102123.59;5099238;27;96632;-27
2023/12/07 00:10:46;;;;;;;2.10;0.90;;;;;;;1.05;100.00;102113.81;5098960;27;97269;-27
2023/12/07 00:13:11;;;;;;;1.30;0.90;;;;;;;1.03;100.00;102106.72;5098825;27;97405;-26
2023/12/07 00:15:37;;;;;;;1.02;0.98;;;;;;;1.00;100.00;102104.94;5098106;27;99017;-27
2023/12/07 00:18:03;;;;;;;0.60;0.60;;;;;;;1.03;100.00;102117.38;5098948;27;96800;-27
2023/12/07 00:20:28;;;;;;;3.00;0.57;;;;;;;0.92;100.00;102103.16;5080593;27;96831;-27
2023/12/07 00:22:54;;;;;;;0.47;0.47;;;;;;;0.97;100.00;102117.38;5079614;27;101389;-27
2023/12/07 00:25:19;;;;;;;2.42;1.73;;;;;;;0.98;100.00;102113.84;5098876;27;97281;-27
2023/12/07 00:27:45;;;;;;;0.80;0.77;;;;;;;1.00;100.00;102117.38;5098409;27;96511;-27
2023/12/07 00:30:11;;;;;;;2.13;0.73;;;;;;;0.93;100.00;102110.25;5098196;27;96482;-27
2023/12/07 00:32:36;;;;;;;2.50;1.40;;;;;;;0.97;100.00;102114.72;5098175;27;99677;-27
2023/12/07 00:35:01;;;;;;;0.43;0.43;;;;;;;0.96;100.00;102120.94;5097348;27;98316;-28
2023/12/07 00:37:27;;;;;;;3.03;1.52;;;;;;;0.93;100.00;102112.94;5098657;27;96523;-28
2023/12/07 00:39:52;;;;;;;1.02;0.63;;;;;;;0.90;100.00;102104.94;5098769;27;96784;-27
2023/12/07 00:42:17;;;;;;;0.98;0.93;;;;;;;0.89;100.00;102105.84;5098203;27;97916;-29
2023/12/07 00:44:43;;;;;;;0.47;0.47;;;;;;;0.83;100.00;102091.63;5098701;27;97234;-27
2023/12/07 00:47:09;;;;;;;1.10;0.95;;;;;;;0.84;100.00;102101.41;5098838;27;96584;-27
2023/12/07 00:49:38;;;;;;;0.65;0.60;;;;;;;0.81;100.00;102096.06;5098186;27;96970;-27
2023/12/07 00:52:04;;;;;;;0.98;0.95;;;;;;;0.82;100.00;102100.50;5097679;27;97084;-27
2023/12/07 00:54:29;;;;;;;1.40;1.10;;;;;;;0.82;100.00;102100.50;5097395;27;97274;-28
2023/12/07 00:56:54;;;;;;;1.05;0.80;;;;;;;0.80;100.00;102102.28;5098066;27;96525;-27
2023/12/07 00:59:20;;;;;;;0.52;0.45;;;;;;;0.85;100.00;102108.50;5098123;27;96882;-27
2023/12/07 01:01:45;;;;;;;1.60;0.68;;;;;;;0.80;100.00;102101.41;5098080;27;98687;-27
2023/12/07 01:04:10;;;;;;;0.90;0.55;;;;;;;0.80;100.00;102101.41;5097404;27;108035;-27
2023/12/07 01:06:36;;;;;;;0.63;0.52;;;;;;;0.85;100.00;102105.81;5098200;27;96661;-27
2023/12/07 01:09:03;;;;;;;1.02;0.93;;;;;;;0.89;100.00;102114.72;5098629;27;96882;-28
2023/12/07 01:11:28;;;;;;;1.60;1.00;;;;;;;0.79;100.00;102102.31;5097842;27;97902;-27
2023/12/07 01:13:54;;;;;;;1.00;0.65;;;;;;;0.83;100.00;102123.63;5097470;27;99114;-27
2023/12/07 01:16:19;;;;;;;1.05;0.73;;;;;;;0.81;100.00;102119.16;5097684;27;96674;-27
2023/12/07 01:18:45;;;;;;;2.08;1.48;;;;;;;0.78;100.00;102121.84;5097889;27;96835;-27
2023/12/07 01:21:10;;;;;;;1.00;0.85;;;;;;;0.71;100.00;102112.06;5097621;27;98038;-27
2023/12/07 01:23:35;;;;;;;0.50;0.50;;;;;;;0.70;100.00;102124.50;5078872;27;102516;-28
2023/12/07 01:26:02;;;;;;;0.90;0.80;;;;;;;0.73;100.00;102126.28;5098092;27;96620;-27
2023/12/07 01:28:28;;;;;;;0.57;0.57;;;;;;;0.66;100.00;102122.72;5097643;27;96841;-27
2023/12/07 01:30:53;;;;;;;3.17;1.77;;;;;;;0.66;100.00;102124.50;5078732;27;98146;-29
2023/12/07 01:33:18;;;;;;;0.43;0.28;;;;;;;0.67;100.00;102127.19;5097895;27;97439;-27
2023/12/07 01:35:44;;;;;;;2.47;0.93;;;;;;;0.63;100.00;102120.97;5097905;27;96499;-27
2023/12/07 01:38:09;;;;;;;0.98;0.80;;;;;;;0.63;100.00;102114.75;5097803;27;96802;-27
2023/12/07 01:40:34;;;;;;;0.95;0.82;;;;;;;0.65;100.00;102120.97;5096952;27;97091;-27
2023/12/07 01:43:00;;;;;;;0.82;0.35;;;;;;;0.68;100.00;102112.97;5097019;27;97716;-27
2023/12/07 01:45:25;;;;;;;0.28;0.28;;;;;;;0.70;100.00;102127.19;5097354;27;96581;-28
2023/12/07 01:47:54;;;;;;;1.17;1.08;;;;;;;0.65;100.00;102109.41;5097184;27;96874;-27
2023/12/07 01:50:26;;;;;;;4.00;1.92;;;;;;;0.71;100.00;102118.28;5078178;27;100823;-27
2023/12/07 01:52:59;;;;;;;1.92;0.43;;;;;;;0.62;100.00;102103.19;5078594;27;100804;-27
2023/12/07 01:55:27;;;;;;;0.20;0.15;;;;;;;0.70;100.00;102110.31;5078516;27;96638;-27
2023/12/07 01:57:52;;;;;;;1.30;1.20;;;;;;;0.76;100.00;102111.19;5079055;27;96932;-27
2023/12/07 02:00:18;;;;;;;1.35;1.25;;;;;;;0.80;100.00;102112.94;5096990;27;97913;-27
2023/12/07 02:02:45;;;;;;;0.85;0.85;;;;;;;0.84;100.00;102122.72;5096801;27;99624;-27
2023/12/07 02:05:12;;;;;;;1.63;1.40;;;;;;;0.82;100.00;102108.50;5078109;27;96495;-27
2023/12/07 02:07:40;;;;;;;0.85;0.75;;;;;;;0.87;100.00;102123.63;5078409;27;96892;-27
2023/12/07 02:10:06;;;;;;;0.95;0.85;;;;;;;0.84;100.00;102127.19;5077726;27;100982;-27
2023/12/07 02:12:32;;;;;;;0.32;0.30;;;;;;;0.74;100.00;102110.31;5078086;27;100972;-27
2023/12/07 02:14:57;;;;;;;0.50;0.50;;;;;;;0.77;100.00;102118.28;5096902;27;96627;-27
2023/12/07 02:17:55;;;;;;;0.90;0.77;;;;;;;0.81;100.00;102125.41;5078256;27;96831;-27
2023/12/07 02:20:28;;;;;;;0.98;0.88;;;;;;;0.78;100.00;102106.72;5078032;27;100920;-27
2023/12/07 02:22:56;;;;;;;3.03;1.00;;;;;;;0.80;100.00;102112.06;5078522;27;101476;-27
2023/12/07 02:25:29;;;;;;;0.13;0.13;;;;;;;0.80;100.00;102112.06;5078185;27;96638;-27
2023/12/07 02:27:54;;;;;;;0.70;0.70;;;;;;;0.87;100.00;102121.84;5078334;27;96798;-28
2023/12/07 02:30:19;;;;;;;0.52;0.52;;;;;;;0.88;100.00;102125.38;5095983;27;97894;-27
2023/12/07 02:32:45;;;;;;;1.20;1.10;;;;;;;0.83;100.00;102115.63;5096642;27;97320;-27
2023/12/07 02:35:15;;;;;;;0.73;0.57;;;;;;;0.86;100.00;102114.75;5077986;27;96716;-28
2023/12/07 02:37:46;;;;;;;1.13;1.02;;;;;;;0.93;100.00;102123.59;5096502;27;96776;-28
2023/12/07 02:40:15;;;;;;;1.88;1.42;;;;;;;0.91;100.00;102120.06;5096235;27;98240;-27
2023/12/07 02:42:43;;;;;;;0.40;0.40;;;;;;;0.90;100.00;102110.28;5077620;27;100765;-27
2023/12/07 02:45:09;;;;;;;0.75;0.75;;;;;;;0.94;100.00;102120.06;5096716;27;96491;-27
2023/12/07 02:47:35;;;;;;;1.88;1.15;;;;;;;0.90;100.00;102107.59;5078082;27;96952;-27
2023/12/07 02:50:02;;;;;;;0.35;0.35;;;;;;;0.95;100.00;102120.03;5077436;27;100928;-27
2023/12/07 02:52:27;;;;;;;1.73;1.38;;;;;;;0.93;100.00;102116.50;5096193;27;98073;-27
2023/12/07 02:54:52;;;;;;;1.25;0.90;;;;;;;0.95;100.00;102122.69;5095389;27;96775;-27
2023/12/07 02:57:18;;;;;;;1.15;1.02;;;;;;;0.96;100.00;102118.28;5094961;27;102298;-27
2023/12/07 02:59:43;;;;;;;1.42;1.30;;;;;;;1.01;100.00;102127.16;5096154;27;97971;-27
2023/12/07 03:02:08;;;;;;;0.80;0.80;;;;;;;0.96;100.00;102124.50;5095928;27;97818;-27
2023/12/07 03:04:33;;;;;;;0.73;0.73;;;;;;;1.01;100.00;102127.16;5096525;27;97040;-27
2023/12/07 03:06:59;;;;;;;1.25;1.15;;;;;;;0.99;100.00;102118.28;5096229;27;96873;-27
2023/12/07 03:09:24;;;;;;;0.40;0.40;;;;;;;0.97;100.00;102125.38;5095899;27;97901;-28
2023/12/07 03:11:50;;;;;;;1.52;0.93;;;;;;;0.97;100.00;102133.38;5096300;27;97856;-27
2023/12/07 03:14:15;;;;;;;1.70;1.25;;;;;;;0.99;100.00;102140.50;5096359;27;96660;-27
2023/12/07 03:16:41;;;;;;;0.60;0.60;;;;;;;0.94;100.00;102128.06;5095862;27;96802;-27
2023/12/07 03:19:06;;;;;;;0.88;0.73;;;;;;;0.93;100.00;102129.84;5095209;27;97417;-27
2023/12/07 03:21:31;;;;;;;0.98;0.85;;;;;;;0.94;100.00;102131.63;5095889;27;97480;-27
2023/12/07 03:23:57;;;;;;;1.00;0.95;;;;;;;0.96;100.00;102129.84;5095585;27;96854;-27
2023/12/07 03:26:22;;;;;;;1.08;0.98;;;;;;;0.97;100.00;102128.94;5096128;27;96794;-27
2023/12/07 03:28:47;;;;;;;0.85;0.82;;;;;;;0.94;100.00;102133.41;5095315;27;112514;-26
2023/12/07 03:31:13;;;;;;;1.00;0.93;;;;;;;0.98;100.00;102135.19;5095485;27;97317;-27
2023/12/07 03:33:41;;;;;;;3.70;1.38;;;;;;;0.97;100.00;102133.38;5077486;27;96659;-27
2023/12/07 03:36:07;;;;;;;0.82;0.80;;;;;;;0.93;100.00;102128.94;5096230;27;96612;-27
2023/12/07 03:38:32;;;;;;;1.70;1.45;;;;;;;0.97;100.00;102136.94;5076900;27;101309;-27
2023/12/07 03:40:58;;;;;;;2.25;1.20;;;;;;;0.96;100.00;102134.28;5095647;27;97749;-27
2023/12/07 03:43:23;;;;;;;1.45;0.75;;;;;;;0.92;100.00;102130.72;5095169;27;96602;-27
2023/12/07 03:45:48;;;;;;;0.80;0.80;;;;;;;1.01;100.00;102137.84;5095560;27;96843;-27
2023/12/07 03:48:14;;;;;;;1.15;1.05;;;;;;;0.98;100.00;102129.84;5095610;27;97970;-27
2023/12/07 03:50:39;;;;;;;1.83;1.58;;;;;;;1.02;100.00;102139.59;5095103;27;98776;-28
2023/12/07 03:53:04;;;;;;;0.80;0.80;;;;;;;1.01;100.00;102145.84;5077216;27;96593;-27
2023/12/07 03:55:29;;;;;;;3.42;2.35;;;;;;;0.99;100.00;102136.94;5076919;27;97004;-27
2023/12/07 03:57:55;;;;;;;1.08;0.73;;;;;;;0.98;100.00;102135.19;5095173;27;102667;-28
2023/12/07 04:00:21;;;;;;;1.77;0.77;;;;;;;0.99;100.00;102128.94;5095346;27;99210;-27
2023/12/07 04:02:46;;;;;;;1.92;1.58;;;;;;;1.01;100.00;102130.72;5095440;27;96483;-28
2023/12/07 04:05:13;;;;;;;0.88;0.88;;;;;;;1.01;100.00;102135.16;5095583;27;96930;-27
2023/12/07 04:07:38;;;;;;;2.15;1.95;;;;;;;0.96;100.00;102127.16;5075943;27;101154;-27
2023/12/07 04:10:06;;;;;;;3.92;2.42;;;;;;;0.90;100.00;102121.81;5098015;27;97750;-27
2023/12/07 04:12:31;;;;;;;0.63;0.63;;;;;;;0.94;100.00;102130.72;5080391;27;96529;-28
2023/12/07 04:14:57;;;;;;;2.88;1.83;;;;;;;0.90;100.00;102127.16;5099243;27;96776;-27
2023/12/07 04:17:22;;;;;;;6.00;2.97;;;;;;;0.87;100.00;102131.63;5098515;27;98853;-26
2023/12/07 04:19:47;;;;;;;2.50;2.10;;;;;;;0.77;100.00;102128.97;5098446;27;98714;-27
2023/12/07 04:22:13;;;;;;;3.13;2.63;;;;;;;0.76;100.00;102121.88;5098592;27;97536;-28
2023/12/07 04:24:38;;;;;;;3.03;1.55;;;;;;;0.73;100.00;102119.19;5098490;27;99746;-27
2023/12/07 04:27:04;;;;;;;1.30;1.20;;;;;;;0.66;100.00;102120.06;5098429;27;99265;-27
2023/12/07 04:29:29;;;;;;;2.33;1.63;;;;;;;0.64;100.00;102132.50;5098525;27;97286;-29
2023/12/07 04:31:55;;;;;;;7.05;2.17;;;;;;;0.59;100.00;102135.16;5098105;27;96608;-27
2023/12/07 04:34:20;;;;;;;1.35;1.25;;;;;;;0.43;100.00;102120.06;5098699;27;96865;-27
2023/12/07 04:36:45;;;;;;;2.10;1.52;;;;;;;0.33;100.00;102116.47;5098563;27;97865;-27
2023/12/07 04:39:10;;;;;;;1.77;1.48;;;;;;;0.30;100.00;102118.28;5098149;27;105444;-27
2023/12/07 04:41:36;;;;;;;2.88;2.60;;;;;;;0.27;100.00;102124.50;5098624;27;96521;-27
2023/12/07 04:44:01;;;;;;;2.15;1.55;;;;;;;0.17;100.00;102117.38;5098354;27;96815;-27
2023/12/07 04:46:28;;;;;;;0.82;0.80;;;;;;;0.18;100.00;102117.34;5097779;27;98988;-27
2023/12/07 04:48:53;;;;;;;2.17;1.02;;;;;;;0.11;100.00;102114.69;5079977;27;101093;-27
2023/12/07 04:51:19;;;;;;;0.55;0.55;;;;;;;0.14;100.00;102126.25;5098290;27;96599;-27
2023/12/07 04:53:44;;;;;;;3.28;1.40;;;;;;;0.10;100.00;102119.13;5097916;27;96812;-27
2023/12/07 04:56:09;;;;;;;4.32;1.45;;;;;;;0.04;100.00;102123.56;5097835;27;97273;-27
2023/12/07 04:58:35;;;;;;;1.35;0.98;;;;;;;0.08;100.00;102133.34;5097926;27;99025;-27
2023/12/07 05:01:00;;;;;;;1.55;1.25;;;;;;;0.05;100.00;102131.56;5079570;27;96731;-27
2023/12/07 05:03:26;;;;;;;1.50;0.98;;;;;;;0.04;100.00;102134.19;5098481;27;96751;-27
2023/12/07 05:05:51;;;;;;;0.75;0.75;;;;;;;0.07;100.00;102135.13;5097928;27;97912;-27
2023/12/07 05:08:17;;;;;;;0.55;0.55;;;;;;;0.07;100.00;102136.88;5097655;27;99713;-27
2023/12/07 05:10:43;;;;;;;1.15;1.00;;;;;;;0.07;100.00;102127.13;5098218;27;96722;-28
2023/12/07 05:13:08;;;;;;;0.88;0.80;;;;;;;0.07;100.00;102121.81;5098538;27;96794;-27
2023/12/07 05:15:34;;;;;;;2.63;2.40;;;;;;;0.14;100.00;102133.34;5097711;27;98397;-27
2023/12/07 05:17:59;;;;;;;1.67;0.77;;;;;;;0.10;100.00;102120.91;5097803;27;97865;-27
2023/12/07 05:20:26;;;;;;;1.30;1.00;;;;;;;0.08;100.00;102131.56;5096596;27;96641;-27
2023/12/07 05:22:52;;;;;;;1.90;1.45;;;;;;;0.13;100.00;102126.25;5097860;27;96758;-27
2023/12/07 05:25:18;;;;;;;1.83;1.58;;;;;;;0.07;100.00;102123.53;5097354;27;99390;-27
2023/12/07 05:27:44;;;;;;;4.55;1.13;;;;;;;0.08;100.00;102120.03;5078968;27;101367;-27
2023/12/07 05:30:10;;;;;;;1.52;1.27;;;;;;;0.13;100.00;102123.56;5078733;27;96792;-27
2023/12/07 05:32:36;;;;;;;1.13;1.10;;;;;;;0.06;100.00;102106.69;5079229;27;96932;-27
2023/12/07 05:35:01;;;;;;;0.63;0.57;;;;;;;0.05;100.00;102109.34;5097519;27;97388;-27
2023/12/07 05:37:26;;;;;;;4.50;1.30;;;;;;;0.12;100.00;102121.78;5097569;27;99190;-27
2023/12/07 05:39:52;;;;;;;3.72;1.55;;;;;;;0.11;100.00;102123.56;5097557;27;97876;-27
2023/12/07 05:42:18;;;;;;;0.30;0.30;;;;;;;0.03;100.00;102112.00;5097591;27;96825;-27
2023/12/07 05:44:44;;;;;;;1.80;0.93;;;;;;;0.02;100.00;102104.00;5078377;27;98196;-27
2023/12/07 05:47:09;;;;;;;0.80;0.80;;;;;;;0.03;100.00;102108.47;5097599;27;97250;-27
2023/12/07 05:49:34;;;;;;;2.28;1.55;;;;;;;0.02;100.00;102104.00;5097228;27;96658;-26
2023/12/07 05:52:00;;;;;;;3.30;1.88;;;;;;;-0.04;100.00;102095.13;5097308;27;96859;-27
2023/12/07 05:54:25;;;;;;;0.82;0.80;;;;;;;0.01;100.00;102092.47;5096566;27;98008;-27
2023/12/07 05:56:51;;;;;;;2.92;1.90;;;;;;;0.00;100.00;102096.03;5096940;27;99452;-27
2023/12/07 05:59:16;;;;;;;3.08;2.22;;;;;;;-0.09;100.00;102099.56;5097104;27;96601;-27
2023/12/07 06:01:43;;;;;;;1.52;1.42;;;;;;;-0.10;100.00;102103.09;5097685;27;96946;-28
2023/12/07 06:04:09;;;;;;;1.13;0.82;;;;;;;-0.06;100.00;102102.22;5096787;27;99449;-27
2023/12/07 06:06:35;;;;;;;4.82;1.83;;;;;;;-0.04;100.00;102113.75;5078151;27;100999;-27
2023/12/07 06:09:00;;;;;;;2.35;1.67;;;;;;;-0.04;100.00;102104.91;5096714;27;96541;-27
2023/12/07 06:11:26;;;;;;;1.13;0.98;;;;;;;-0.09;100.00;102098.66;5097003;27;96854;-27
2023/12/07 06:13:51;;;;;;;1.20;0.85;;;;;;;-0.14;100.00;102096.00;5096549;27;99097;-27
2023/12/07 06:16:18;;;;;;;1.13;0.95;;;;;;;-0.08;100.00;102097.78;5096703;27;100054;-27
2023/12/07 06:18:44;;;;;;;1.10;0.73;;;;;;;-0.09;100.00;102090.69;5096995;27;96624;-26
2023/12/07 06:21:09;;;;;;;0.30;0.22;;;;;;;-0.03;100.00;102104.88;5097021;27;96766;-27
2023/12/07 06:23:35;;;;;;;1.52;0.82;;;;;;;0.02;100.00;102106.66;5096792;27;97405;-27
2023/12/07 06:26:01;;;;;;;1.48;1.38;;;;;;;-0.04;100.00;102099.56;5096736;27;98801;-27
2023/12/07 06:28:27;;;;;;;0.75;0.75;;;;;;;0.06;100.00;102105.81;5078036;27;96695;-27
2023/12/07 06:30:52;;;;;;;0.10;0.10;;;;;;;0.04;100.00;102097.78;5096972;27;96694;-28
2023/12/07 06:33:18;;;;;;;0.98;0.88;;;;;;;0.07;100.00;102104.91;5094545;27;101021;-27
2023/12/07 06:35:43;;;;;;;1.38;0.65;;;;;;;0.14;100.00;102110.28;5096567;27;100436;-26
2023/12/07 06:38:08;;;;;;;1.83;1.10;;;;;;;0.11;100.00;102099.59;5096751;27;96587;-27
2023/12/07 06:40:34;;;;;;;1.65;1.23;;;;;;;0.18;100.00;102105.81;5096752;27;96795;-27
2023/12/07 06:42:59;;;;;;;0.82;0.77;;;;;;;0.21;100.00;102105.81;5096149;27;97657;-27
2023/12/07 06:45:24;;;;;;;6.40;2.55;;;;;;;0.18;100.00;102095.16;5096205;27;99358;-27
2023/12/07 06:47:50;;;;;;;0.50;0.50;;;;;;;0.24;100.00;102096.94;5096824;27;96784;-27
2023/12/07 06:50:15;;;;;;;1.85;1.02;;;;;;;0.31;100.00;102109.38;5096878;27;96877;-27
2023/12/07 06:52:42;;;;;;;1.40;1.15;;;;;;;0.33;100.00;102100.50;5096303;27;97916;-27
2023/12/07 06:55:10;;;;;;;0.98;0.57;;;;;;;0.36;100.00;102089.88;5095871;27;97322;-27
2023/12/07 06:57:35;;;;;;;2.05;1.65;;;;;;;0.31;100.00;102080.06;5076615;27;96676;-26
2023/12/07 07:00:05;;;;;;;2.28;1.30;;;;;;;0.34;100.00;102090.75;5076939;27;97090;-27
2023/12/07 07:02:30;;;;;;;1.98;1.08;;;;;;;0.35;100.00;102101.38;5094659;27;98030;-28
2023/12/07 07:04:56;;;;;;;1.88;1.15;;;;;;;0.40;100.00;102096.94;5096109;27;97332;-27
2023/12/07 07:07:21;;;;;;;3.47;0.75;;;;;;;0.37;100.00;102093.41;5096509;27;96593;-27
2023/12/07 07:09:46;;;;;;;1.25;0.85;;;;;;;0.37;100.00;102101.41;5096353;27;96789;-27
2023/12/07 07:12:12;;;;;;;3.22;2.15;;;;;;;0.33;100.00;102097.84;5095764;27;97851;-28
2023/12/07 07:14:37;;;;;;;1.05;0.95;;;;;;;0.34;100.00;102101.41;5096160;27;99100;-28
2023/12/07 07:17:04;;;;;;;1.58;0.85;;;;;;;0.38;100.00;102103.16;5094203;27;97081;-31
2023/12/07 07:19:29;;;;;;;1.48;1.13;;;;;;;0.34;100.00;102078.31;5075021;27;97127;-33
2023/12/07 07:21:55;;;;;;;1.00;0.88;;;;;;;0.41;100.00;102088.09;5093034;27;98105;-27
2023/12/07 07:24:20;;;;;;;1.85;1.25;;;;;;;0.40;100.00;102088.94;5074807;27;97326;-27
2023/12/07 07:26:46;;;;;;;1.58;1.00;;;;;;;0.40;100.00;102096.94;5093651;27;96942;-33
2023/12/07 07:29:11;;;;;;;1.98;1.63;;;;;;;0.35;100.00;102092.50;5093974;27;97039;-33
2023/12/07 07:31:36;;;;;;;6.05;2.50;;;;;;;0.34;100.00;102091.63;5094501;27;97963;-27
2023/12/07 07:34:02;;;;;;;0.98;0.93;;;;;;;0.40;100.00;102085.41;5095768;27;97462;-27
2023/12/07 07:36:28;;;;;;;0.93;0.52;;;;;;;0.45;100.00;102093.41;5095744;27;96507;-27
2023/12/07 07:38:54;;;;;;;1.20;1.10;;;;;;;0.46;100.00;102093.41;5077654;27;97267;-28
2023/12/07 07:41:19;;;;;;;2.42;1.50;;;;;;;0.45;100.00;102090.75;5094971;27;98072;-27
2023/12/07 07:43:44;;;;;;;3.20;2.05;;;;;;;0.39;100.00;102088.97;5094163;27;97284;-29
2023/12/07 07:46:10;;;;;;;2.10;1.98;;;;;;;0.45;100.00;102101.41;5097814;27;96742;-27
2023/12/07 07:48:36;;;;;;;4.30;1.80;;;;;;;0.38;100.00;102088.09;5099149;27;96840;-28
2023/12/07 07:51:03;;;;;;;2.20;1.75;;;;;;;0.45;100.00;102104.94;5098512;27;99804;-27
2023/12/07 07:53:28;;;;;;;1.83;1.33;;;;;;;0.45;100.00;102104.06;5079734;27;100790;-28
2023/12/07 07:55:54;;;;;;;0.63;0.63;;;;;;;0.40;100.00;102096.94;5099225;27;97010;-28
2023/12/07 07:58:19;;;;;;;1.23;1.15;;;;;;;0.46;100.00;102103.19;5079882;27;96812;-27
2023/12/07 08:00:46;;;;;;;0.70;0.65;;;;;;;0.51;100.00;102114.75;5097602;27;98038;-27
2023/12/07 08:03:12;;;;;;;1.00;0.93;;;;;;;0.55;100.00;102119.16;5098097;27;97928;-31
2023/12/07 08:05:37;;;;;;;2.65;1.88;;;;;;;0.51;100.00;102104.97;5097520;27;96772;-27
2023/12/07 08:08:02;;;;;;;2.13;0.68;;;;;;;0.51;100.00;102093.41;5097480;27;98593;-33
2023/12/07 08:10:28;;;;;;;1.58;0.82;;;;;;;0.54;100.00;102102.28;5096894;27;97266;-27
2023/12/07 08:12:53;;;;;;;4.85;1.98;;;;;;;0.53;100.00;102099.66;5097048;27;106301;-27
2023/12/07 08:15:18;;;;;;;1.02;0.93;;;;;;;0.56;100.00;102105.84;5098816;27;96497;-27
2023/12/07 08:17:43;;;;;;;3.05;0.93;;;;;;;0.63;100.00;102104.06;5099120;27;96637;-27
2023/12/07 08:20:12;;;;;;;0.52;0.52;;;;;;;0.63;100.00;102098.75;5098653;27;97382;-27
2023/12/07 08:22:38;;;;;;;2.60;1.38;;;;;;;0.60;100.00;102088.09;5098428;27;98355;-27
2023/12/07 08:25:05;;;;;;;0.90;0.63;;;;;;;0.68;100.00;102102.28;5079682;27;96938;-27
2023/12/07 08:27:32;;;;;;;1.80;0.95;;;;;;;0.67;100.00;102095.19;5080564;27;96838;-27
2023/12/07 08:29:58;;;;;;;1.58;1.33;;;;;;;0.71;100.00;102099.63;5079698;27;100425;-27
2023/12/07 08:32:25;;;;;;;0.93;0.80;;;;;;;0.66;100.00;102093.41;5098497;27;97405;-27
2023/12/07 08:34:54;;;;;;;2.45;2.17;;;;;;;0.68;100.00;102104.06;5079682;27;96709;-27
2023/12/07 08:37:19;;;;;;;1.88;1.70;;;;;;;0.68;100.00;102096.06;5079992;27;96854;-27
2023/12/07 08:39:45;;;;;;;2.22;1.58;;;;;;;0.65;100.00;102088.97;5098244;27;98060;-27
2023/12/07 08:42:11;;;;;;;2.03;1.48;;;;;;;0.69;100.00;102093.44;5079711;27;100516;-27
2023/12/07 08:44:36;;;;;;;3.50;1.63;;;;;;;0.67;100.00;102076.53;5098414;27;96675;-27
2023/12/07 08:47:02;;;;;;;6.20;1.63;;;;;;;0.73;100.00;102084.50;5098332;27;96837;-27
2023/12/07 08:49:28;;;;;;;3.33;1.27;;;;;;;0.78;100.00;102069.38;5098108;27;97923;-27
2023/12/07 08:51:53;;;;;;;1.52;1.38;;;;;;;0.79;100.00;102059.63;5098542;27;96739;-27
2023/12/07 08:54:18;;;;;;;2.35;1.70;;;;;;;0.80;100.00;102064.06;5097805;27;97066;-27
2023/12/07 08:56:45;;;;;;;4.53;1.95;;;;;;;0.86;100.00;102082.75;5097280;27;96940;-27
2023/12/07 08:59:11;;;;;;;1.90;1.52;;;;;;;0.83;100.00;102083.63;5097434;27;99554;-28
2023/12/07 09:01:37;;;;;;;2.60;2.10;;;;;;;0.86;100.00;102077.41;5097997;27;97696;-27
2023/12/07 09:04:03;;;;;;;3.25;1.95;;;;;;;0.91;100.00;102085.41;5098299;27;96426;-27
2023/12/07 09:06:28;;;;;;;1.40;1.30;;;;;;;0.91;100.00;102088.94;5079510;27;97170;-27
2023/12/07 09:08:55;;;;;;;3.75;1.50;;;;;;;0.95;100.00;102085.34;5078907;27;101024;-27
2023/12/07 09:11:20;;;;;;;4.47;2.75;;;;;;;1.00;100.00;102082.69;5079051;27;101137;-27
2023/12/07 09:13:45;;;;;;;5.43;1.55;;;;;;;1.01;100.00;102082.69;5098200;27;96669;-26
2023/12/07 09:16:11;;;;;;;1.83;1.50;;;;;;;1.02;100.00;102081.78;5098700;27;96838;-27
2023/12/07 09:18:36;;;;;;;2.47;1.27;;;;;;;1.08;100.00;102091.59;5097810;27;98046;-27
2023/12/07 09:21:02;;;;;;;3.85;2.15;;;;;;;1.09;100.00;102082.66;5097750;27;97924;-27
2023/12/07 09:23:28;;;;;;;0.50;0.50;;;;;;;1.05;100.00;102076.47;5078455;27;96751;-27
2023/12/07 09:25:53;;;;;;;1.45;0.90;;;;;;;1.12;100.00;102061.34;5097642;27;97073;-27
2023/12/07 09:28:19;;;;;;;6.22;4.22;;;;;;;1.15;100.00;102071.13;5097727;27;97984;-28
2023/12/07 09:30:45;;;;;;;4.40;1.65;;;;;;;1.14;100.00;102058.66;5078773;27;99665;-27
2023/12/07 09:33:10;;;;;;;1.85;1.63;;;;;;;1.17;100.00;102058.63;5097495;27;96678;-27
2023/12/07 09:35:35;;;;;;;9.18;3.15;;;;;;;1.15;100.00;102047.97;5098202;27;96802;-27
2023/12/07 09:38:01;;;;;;;5.78;1.80;;;;;;;1.23;100.00;102047.94;5096946;27;99235;-28
2023/12/07 09:40:27;;;;;;;2.30;2.10;;;;;;;1.21;100.00;102039.94;5097568;27;98935;-27
2023/12/07 09:42:53;;;;;;;1.92;1.38;;;;;;;1.25;100.00;102023.03;5097279;27;96523;-27
2023/12/07 09:45:19;;;;;;;1.88;1.67;;;;;;;1.32;100.00;102041.69;5097356;27;96998;-27
2023/12/07 09:47:50;;;;;;;2.80;1.45;;;;;;;1.30;100.00;102028.34;5078079;27;101069;-27
2023/12/07 09:50:18;;;;;;;3.10;1.92;;;;;;;1.39;100.00;102040.78;5078149;27;100716;-27
2023/12/07 09:52:44;;;;;;;1.27;1.00;;;;;;;1.43;100.00;102042.50;5078809;27;96731;-27
2023/12/07 09:55:09;;;;;;;2.47;1.58;;;;;;;1.41;100.00;102023.84;5097208;27;97512;-28
2023/12/07 09:57:37;;;;;;;3.25;2.40;;;;;;;1.46;100.00;102029.19;5097169;27;98039;-27
2023/12/07 10:00:04;;;;;;;3.65;2.55;;;;;;;1.46;100.00;102031.84;5078143;27;100818;-27
2023/12/07 10:02:30;;;;;;;3.33;2.13;;;;;;;1.49;100.00;102031.81;5078824;27;96656;-28
2023/12/07 10:05:10;;;;;;;1.60;1.50;;;;;;;1.49;100.00;102023.81;5078962;27;96881;-27
2023/12/07 10:07:37;;;;;;;2.22;1.27;;;;;;;1.47;100.00;102020.25;5096470;27;99419;-28
2023/12/07 10:10:04;;;;;;;3.45;2.92;;;;;;;1.48;100.00;102014.91;5078090;27;100801;-27
2023/12/07 10:12:34;;;;;;;2.75;1.58;;;;;;;1.57;100.00;102027.31;5077989;27;96826;-28
2023/12/07 10:15:03;;;;;;;5.07;2.90;;;;;;;1.60;100.00;102019.31;5078254;27;96805;-27
2023/12/07 10:18:01;;;;;;;2.80;2.03;;;;;;;1.63;100.00;102021.06;5077885;27;100918;-27
2023/12/07 10:20:28;;;;;;;1.15;0.80;;;;;;;1.63;100.00;101999.72;5076433;27;98877;-27
2023/12/07 10:23:08;;;;;;;1.65;1.27;;;;;;;1.70;100.00;102006.78;5078322;27;96779;-27
2023/12/07 10:25:37;;;;;;;1.60;1.00;;;;;;;1.68;100.00;101996.09;5096934;27;96961;-27
2023/12/07 10:28:06;;;;;;;3.03;2.08;;;;;;;1.74;100.00;101996.97;5077811;27;101601;-29
2023/12/07 10:30:32;;;;;;;1.30;1.15;;;;;;;1.75;100.00;101998.75;5078010;27;101024;-27
2023/12/07 10:32:58;;;;;;;2.40;1.67;;;;;;;1.79;100.00;101997.81;5096850;27;96679;-27
2023/12/07 10:35:23;;;;;;;1.40;1.05;;;;;;;1.74;100.00;101970.25;5096796;27;96784;-27
2023/12/07 10:37:49;;;;;;;1.30;1.10;;;;;;;1.79;100.00;101981.78;5096004;27;97936;-27
2023/12/07 10:40:14;;;;;;;4.00;1.83;;;;;;;1.81;100.00;101983.56;5096410;27;97871;-27
2023/12/07 10:42:42;;;;;;;1.13;1.08;;;;;;;1.89;100.00;101978.16;5077875;27;96601;-27
2023/12/07 10:45:09;;;;;;;1.05;0.95;;;;;;;1.90;100.00;101970.13;5096602;27;96804;-28
2023/12/07 10:47:36;;;;;;;1.17;0.98;;;;;;;1.91;100.00;101957.69;5077565;27;100941;-27
2023/12/07 10:50:08;;;;;;;0.90;0.52;;;;;;;1.97;100.00;101954.94;5077330;27;101176;-27
2023/12/07 10:52:36;;;;;;;1.10;0.75;;;;;;;1.96;100.00;101945.16;5077827;27;96520;-28
2023/12/07 10:55:13;;;;;;;2.65;1.40;;;;;;;2.00;100.00;101954.94;5077970;27;96953;-27
2023/12/07 10:57:39;;;;;;;0.70;0.52;;;;;;;2.04;100.00;101942.41;5096323;27;97731;-27
2023/12/07 11:00:07;;;;;;;1.80;1.45;;;;;;;2.04;100.00;101937.06;5077351;27;100775;-27
2023/12/07 11:02:33;;;;;;;1.08;0.85;;;;;;;2.11;100.00;101944.13;5095655;27;96461;-27
2023/12/07 11:05:00;;;;;;;2.35;1.92;;;;;;;2.10;100.00;101926.34;5077858;27;96851;-27
2023/12/07 11:07:37;;;;;;;1.40;1.08;;;;;;;2.09;100.00;101925.44;5077201;27;100928;-27
2023/12/07 11:10:29;;;;;;;7.43;2.55;;;;;;;2.09;100.00;101919.22;5077240;27;100946;-28
2023/12/07 11:13:11;;;;;;;2.03;1.60;;;;;;;2.12;100.00;101925.44;5095512;27;96491;-27
2023/12/07 11:15:36;;;;;;;;;;;;;;;2.15;100.00;101926.31;5078073;27;96824;-27
2023/12/07 11:18:03;;;;;;;0.93;0.75;;;;;;;2.09;100.00;101917.41;5095290;27;97481;-28
2023/12/07 11:20:44;;;;;;;2.25;1.27;;;;;;;2.06;100.00;101914.78;5077329;27;98874;-27